createdAt,value
2017-09-24T00:00:24.029Z,83.16
2017-09-24T00:01:23.955Z,83.16
2017-09-24T00:02:24.022Z,83.35
2017-09-24T00:03:23.942Z,83.25
2017-09-24T00:04:23.876Z,82.97
2017-09-24T00:05:24.002Z,83.06
2017-09-24T00:06:23.838Z,83.16
2017-09-24T00:07:23.832Z,83.16
2017-09-24T00:08:23.843Z,83.35
2017-09-24T00:09:23.803Z,83.44
2017-09-24T00:10:23.778Z,83.83
2017-09-24T00:11:23.742Z,83.92
2017-09-24T00:12:25.344Z,84.01
2017-09-24T00:13:23.770Z,84.01
2017-09-24T00:14:23.752Z,83.92
2017-09-24T00:15:23.732Z,83.83
2017-09-24T00:16:26.377Z,83.64
2017-09-24T00:17:23.654Z,84.01
2017-09-24T00:18:23.627Z,83.92
2017-09-24T00:19:23.591Z,83.54
2017-09-24T00:20:23.588Z,83.64
2017-09-24T00:21:23.553Z,83.64
2017-09-24T00:22:23.556Z,83.44
2017-09-24T00:23:23.536Z,83.54
2017-09-24T00:24:23.510Z,83.64
2017-09-24T00:25:23.459Z,83.73
2017-09-24T00:26:23.483Z,83.92
2017-09-24T00:27:23.472Z,83.83
2017-09-24T00:28:23.463Z,84.59
2017-09-24T00:29:23.411Z,84.40
2017-09-24T00:30:23.387Z,84.30
2017-09-24T00:31:23.361Z,84.40
2017-09-24T00:32:23.380Z,84.30
2017-09-24T00:33:23.318Z,84.20
2017-09-24T00:34:23.321Z,84.20
2017-09-24T00:35:23.289Z,84.20
2017-09-24T00:36:23.282Z,83.92
2017-09-24T00:37:23.273Z,83.83
2017-09-24T00:38:23.245Z,83.92
2017-09-24T00:39:23.232Z,84.59
2017-09-24T00:40:23.188Z,84.40
2017-09-24T00:41:23.171Z,84.11
2017-09-24T00:42:23.184Z,84.20
2017-09-24T00:43:23.199Z,84.11
2017-09-24T00:44:23.153Z,84.11
2017-09-24T00:45:23.146Z,84.30
2017-09-24T00:46:23.075Z,84.59
2017-09-24T00:47:23.096Z,84.49
2017-09-24T00:48:23.071Z,84.69
2017-09-24T00:49:23.071Z,84.78
2017-09-24T00:50:23.015Z,84.49
2017-09-24T00:51:23.018Z,85.25
2017-09-24T00:52:22.985Z,85.25
2017-09-24T00:53:23.002Z,84.40
2017-09-24T00:54:22.959Z,85.16
2017-09-24T00:55:22.963Z,84.97
2017-09-24T00:56:22.917Z,85.25
2017-09-24T00:57:22.932Z,85.06
2017-09-24T00:58:22.902Z,84.97
2017-09-24T00:59:22.842Z,85.06
2017-09-24T01:00:22.878Z,85.06
2017-09-24T01:01:22.860Z,85.16
2017-09-24T01:02:23.341Z,85.06
2017-09-24T01:03:23.420Z,84.78
2017-09-24T01:04:22.804Z,84.78
2017-09-24T01:05:22.756Z,84.69
2017-09-24T01:06:22.733Z,85.06
2017-09-24T01:07:22.716Z,84.78
2017-09-24T01:08:22.693Z,84.59
2017-09-24T01:09:22.673Z,85.06
2017-09-24T01:10:22.664Z,84.69
2017-09-24T01:11:22.645Z,84.20
2017-09-24T01:12:22.687Z,84.30
2017-09-24T01:13:22.629Z,84.40
2017-09-24T01:14:22.604Z,84.59
2017-09-24T01:15:22.581Z,84.30
2017-09-24T01:16:22.550Z,84.40
2017-09-24T01:17:22.532Z,84.20
2017-09-24T01:18:22.523Z,84.20
2017-09-24T01:19:22.557Z,84.20
2017-09-24T01:20:22.466Z,84.20
2017-09-24T01:21:22.488Z,84.40
2017-09-24T01:22:22.433Z,84.78
2017-09-24T01:23:22.464Z,84.40
2017-09-24T01:24:22.405Z,84.40
2017-09-24T01:25:22.417Z,85.25
2017-09-24T01:26:22.446Z,84.49
2017-09-24T01:27:22.394Z,84.59
2017-09-24T01:28:22.509Z,84.97
2017-09-24T01:29:22.327Z,85.16
2017-09-24T01:30:22.296Z,85.25
2017-09-24T01:31:22.278Z,84.78
2017-09-24T01:32:22.289Z,84.78
2017-09-24T01:33:22.237Z,84.78
2017-09-24T01:34:22.277Z,84.97
2017-09-24T01:35:22.517Z,85.06
2017-09-24T01:36:22.252Z,84.78
2017-09-24T01:37:22.192Z,84.88
2017-09-24T01:38:22.167Z,84.78
2017-09-24T01:39:22.128Z,84.97
2017-09-24T01:40:22.116Z,84.88
2017-09-24T01:41:22.136Z,84.97
2017-09-24T01:42:22.080Z,84.97
2017-09-24T01:43:22.123Z,84.78
2017-09-24T01:44:22.054Z,84.88
2017-09-24T01:45:22.099Z,84.97
2017-09-24T01:46:22.025Z,85.45
2017-09-24T01:47:21.993Z,85.54
2017-09-24T01:48:22.026Z,85.45
2017-09-24T01:49:21.962Z,85.25
2017-09-24T01:50:21.950Z,85.45
2017-09-24T01:51:21.929Z,85.25
2017-09-24T01:52:21.914Z,85.25
2017-09-24T01:53:21.881Z,85.45
2017-09-24T01:54:21.890Z,85.45
2017-09-24T01:55:21.863Z,85.45
2017-09-24T01:56:21.844Z,85.64
2017-09-24T01:57:22.100Z,85.35
2017-09-24T01:58:21.838Z,85.35
2017-09-24T01:59:21.806Z,85.54
2017-09-24T02:00:21.775Z,85.16
2017-09-24T02:01:21.735Z,85.73
2017-09-24T02:02:21.750Z,85.93
2017-09-24T02:03:21.700Z,85.83
2017-09-24T02:04:21.724Z,85.54
2017-09-24T02:05:21.689Z,85.54
2017-09-24T02:06:21.650Z,85.45
2017-09-24T02:07:21.683Z,85.54
2017-09-24T02:08:21.655Z,85.83
2017-09-24T02:09:21.600Z,85.83
2017-09-24T02:10:21.599Z,85.73
2017-09-24T02:11:21.633Z,85.54
2017-09-24T02:12:21.559Z,85.64
2017-09-24T02:13:21.574Z,85.64
2017-09-24T02:14:21.532Z,85.45
2017-09-24T02:15:21.613Z,85.54
2017-09-24T02:16:21.492Z,85.64
2017-09-24T02:17:21.567Z,85.54
2017-09-24T02:18:21.540Z,85.54
2017-09-24T02:19:21.498Z,85.45
2017-09-24T02:20:21.470Z,85.54
2017-09-24T02:21:21.438Z,85.35
2017-09-24T02:22:21.408Z,85.35
2017-09-24T02:23:21.422Z,85.45
2017-09-24T02:24:21.393Z,85.64
2017-09-24T02:25:21.349Z,85.64
2017-09-24T02:26:21.372Z,85.64
2017-09-24T02:27:21.306Z,86.02
2017-09-24T02:28:21.263Z,85.64
2017-09-24T02:29:21.395Z,85.64
2017-09-24T02:30:21.335Z,85.54
2017-09-24T02:31:21.294Z,85.45
2017-09-24T02:32:21.291Z,85.35
2017-09-24T02:33:21.242Z,85.45
2017-09-24T02:34:21.145Z,85.54
2017-09-24T02:35:21.202Z,85.64
2017-09-24T02:36:21.154Z,85.45
2017-09-24T02:37:21.093Z,85.93
2017-09-24T02:38:21.119Z,86.02
2017-09-24T02:39:21.130Z,85.83
2017-09-24T02:40:21.087Z,86.11
2017-09-24T02:41:21.051Z,85.83
2017-09-24T02:42:21.077Z,85.93
2017-09-24T02:43:21.101Z,85.83
2017-09-24T02:44:20.975Z,85.64
2017-09-24T02:45:20.953Z,86.40
2017-09-24T02:46:20.965Z,85.93
2017-09-24T02:47:21.000Z,85.83
2017-09-24T02:48:20.887Z,85.73
2017-09-24T02:49:20.907Z,86.49
2017-09-24T02:50:20.975Z,86.69
2017-09-24T02:51:20.868Z,86.49
2017-09-24T02:52:20.852Z,86.49
2017-09-24T02:53:20.847Z,86.30
2017-09-24T02:54:20.805Z,86.40
2017-09-24T02:55:20.809Z,86.40
2017-09-24T02:56:20.769Z,86.49
2017-09-24T02:57:20.734Z,86.49
2017-09-24T02:58:20.794Z,86.40
2017-09-24T02:59:20.713Z,86.11
2017-09-24T03:00:21.728Z,86.30
2017-09-24T03:01:20.660Z,85.93
2017-09-24T03:02:20.644Z,86.21
2017-09-24T03:03:20.706Z,86.49
2017-09-24T03:04:20.646Z,86.21
2017-09-24T03:05:20.623Z,86.49
2017-09-24T03:06:20.663Z,86.30
2017-09-24T03:07:20.596Z,86.69
2017-09-24T03:08:20.561Z,86.69
2017-09-24T03:09:20.556Z,86.40
2017-09-24T03:10:20.539Z,86.69
2017-09-24T03:11:20.537Z,86.98
2017-09-24T03:12:20.486Z,86.49
2017-09-24T03:13:20.450Z,86.88
2017-09-24T03:14:20.474Z,86.69
2017-09-24T03:15:20.406Z,86.49
2017-09-24T03:16:20.454Z,86.59
2017-09-24T03:17:20.370Z,86.49
2017-09-24T03:18:20.400Z,86.49
2017-09-24T03:19:20.370Z,86.69
2017-09-24T03:20:20.391Z,86.69
2017-09-24T03:21:20.333Z,87.16
2017-09-24T03:22:20.340Z,86.98
2017-09-24T03:23:20.269Z,87.07
2017-09-24T03:24:20.244Z,87.07
2017-09-24T03:25:20.235Z,86.69
2017-09-24T03:26:20.252Z,86.69
2017-09-24T03:27:20.235Z,86.88
2017-09-24T03:28:20.195Z,86.98
2017-09-24T03:29:20.215Z,86.69
2017-09-24T03:30:20.162Z,87.07
2017-09-24T03:31:20.128Z,86.69
2017-09-24T03:32:20.111Z,87.07
2017-09-24T03:33:20.122Z,86.78
2017-09-24T03:34:20.110Z,86.88
2017-09-24T03:35:20.139Z,86.88
2017-09-24T03:36:20.144Z,86.88
2017-09-24T03:37:20.028Z,86.78
2017-09-24T03:38:20.032Z,86.88
2017-09-24T03:39:20.002Z,86.69
2017-09-24T03:40:19.958Z,86.69
2017-09-24T03:41:19.951Z,86.78
2017-09-24T03:42:19.926Z,86.69
2017-09-24T03:43:19.910Z,86.69
2017-09-24T03:44:19.880Z,86.69
2017-09-24T03:45:19.871Z,86.69
2017-09-24T03:46:19.842Z,86.78
2017-09-24T03:47:19.843Z,86.69
2017-09-24T03:48:19.816Z,86.49
2017-09-24T03:49:19.804Z,86.69
2017-09-24T03:50:19.772Z,86.59
2017-09-24T03:51:19.747Z,86.59
2017-09-24T03:52:19.742Z,86.59
2017-09-24T03:53:19.732Z,86.78
2017-09-24T03:54:19.711Z,86.78
2017-09-24T03:55:19.691Z,86.78
2017-09-24T03:56:19.670Z,86.78
2017-09-24T03:57:19.651Z,86.78
2017-09-24T03:58:19.625Z,86.59
2017-09-24T03:59:19.622Z,86.69
2017-09-24T04:00:19.588Z,86.40
2017-09-24T04:01:19.583Z,86.98
2017-09-24T04:02:19.571Z,86.98
2017-09-24T04:03:19.545Z,87.64
2017-09-24T04:04:19.525Z,87.54
2017-09-24T04:05:19.503Z,87.54
2017-09-24T04:06:19.495Z,87.26
2017-09-24T04:07:19.469Z,87.26
2017-09-24T04:08:19.451Z,87.45
2017-09-24T04:09:19.436Z,87.45
2017-09-24T04:10:19.419Z,87.26
2017-09-24T04:11:19.412Z,87.45
2017-09-24T04:12:19.393Z,87.35
2017-09-24T04:13:19.362Z,87.26
2017-09-24T04:14:19.355Z,87.35
2017-09-24T04:15:19.333Z,87.16
2017-09-24T04:16:19.303Z,87.45
2017-09-24T04:17:19.297Z,87.07
2017-09-24T04:18:19.281Z,87.26
2017-09-24T04:19:19.249Z,87.16
2017-09-24T04:20:19.252Z,87.07
2017-09-24T04:21:19.216Z,87.26
2017-09-24T04:22:19.218Z,87.26
2017-09-24T04:23:19.176Z,87.26
2017-09-24T04:24:19.179Z,87.16
2017-09-24T04:25:19.153Z,87.45
2017-09-24T04:26:19.142Z,87.26
2017-09-24T04:27:19.108Z,87.35
2017-09-24T04:28:19.119Z,87.35
2017-09-24T04:29:19.066Z,87.26
2017-09-24T04:30:19.060Z,87.74
2017-09-24T04:31:19.043Z,87.26
2017-09-24T04:32:19.032Z,87.26
2017-09-24T04:33:19.022Z,87.26
2017-09-24T04:34:18.986Z,87.26
2017-09-24T04:35:18.984Z,87.35
2017-09-24T04:36:18.956Z,87.07
2017-09-24T04:37:18.928Z,87.26
2017-09-24T04:38:18.923Z,87.07
2017-09-24T04:39:18.908Z,87.16
2017-09-24T04:40:18.884Z,87.07
2017-09-24T04:41:18.860Z,87.64
2017-09-24T04:42:18.854Z,87.64
2017-09-24T04:43:18.822Z,87.64
2017-09-24T04:44:18.815Z,87.54
2017-09-24T04:45:18.787Z,87.74
2017-09-24T04:46:18.825Z,87.45
2017-09-24T04:47:18.900Z,87.45
2017-09-24T04:48:18.776Z,88.21
2017-09-24T04:49:18.758Z,87.93
2017-09-24T04:50:18.717Z,87.93
2017-09-24T04:51:18.731Z,87.26
2017-09-24T04:52:18.816Z,87.83
2017-09-24T04:53:18.689Z,88.02
2017-09-24T04:54:18.633Z,88.12
2017-09-24T04:55:18.628Z,88.12
2017-09-24T04:56:18.694Z,88.12
2017-09-24T04:57:18.592Z,88.12
2017-09-24T04:58:18.582Z,88.12
2017-09-24T04:59:18.547Z,87.93
2017-09-24T05:00:18.518Z,87.93
2017-09-24T05:01:18.540Z,88.12
2017-09-24T05:02:18.545Z,87.74
2017-09-24T05:03:18.582Z,87.64
2017-09-24T05:04:18.516Z,87.74
2017-09-24T05:05:18.499Z,88.12
2017-09-24T05:06:18.454Z,88.12
2017-09-24T05:07:18.408Z,88.21
2017-09-24T05:08:18.379Z,88.02
2017-09-24T05:09:18.409Z,87.74
2017-09-24T05:10:18.440Z,88.21
2017-09-24T05:11:18.359Z,87.93
2017-09-24T05:12:18.338Z,88.21
2017-09-24T05:13:18.360Z,88.40
2017-09-24T05:14:18.473Z,88.21
2017-09-24T05:15:18.264Z,88.31
2017-09-24T05:16:18.246Z,88.12
2017-09-24T05:17:18.263Z,88.21
2017-09-24T05:18:18.206Z,88.21
2017-09-24T05:19:18.186Z,88.21
2017-09-24T05:20:18.288Z,88.40
2017-09-24T05:21:18.158Z,88.12
2017-09-24T05:22:18.119Z,87.93
2017-09-24T05:23:18.143Z,88.12
2017-09-24T05:24:18.094Z,88.40
2017-09-24T05:25:18.136Z,88.21
2017-09-24T05:26:18.068Z,88.12
2017-09-24T05:27:18.080Z,88.02
2017-09-24T05:28:18.049Z,88.31
2017-09-24T05:29:18.005Z,88.21
2017-09-24T05:30:17.979Z,88.21
2017-09-24T05:31:17.978Z,88.31
2017-09-24T05:32:17.978Z,88.31
2017-09-24T05:33:17.925Z,88.02
2017-09-24T05:34:17.921Z,88.21
2017-09-24T05:35:17.890Z,87.93
2017-09-24T05:36:17.909Z,88.02
2017-09-24T05:37:17.869Z,88.02
2017-09-24T05:38:17.891Z,88.40
2017-09-24T05:39:17.817Z,88.12
2017-09-24T05:40:17.825Z,88.40
2017-09-24T05:41:17.825Z,88.21
2017-09-24T05:42:17.774Z,88.21
2017-09-24T05:43:17.770Z,88.31
2017-09-24T05:44:17.732Z,88.31
2017-09-24T05:45:17.729Z,88.02
2017-09-24T05:46:17.690Z,88.02
2017-09-24T05:47:17.726Z,88.59
2017-09-24T05:48:17.668Z,88.31
2017-09-24T05:49:17.677Z,88.40
2017-09-24T05:50:17.621Z,88.12
2017-09-24T05:51:17.671Z,88.50
2017-09-24T05:52:17.619Z,88.40
2017-09-24T05:53:17.590Z,88.50
2017-09-24T05:54:17.577Z,88.40
2017-09-24T05:55:17.635Z,88.50
2017-09-24T05:56:17.512Z,88.50
2017-09-24T05:57:17.704Z,88.59
2017-09-24T05:58:17.547Z,88.59
2017-09-24T05:59:17.494Z,88.59
2017-09-24T06:00:17.489Z,88.78
2017-09-24T06:01:17.509Z,88.40
2017-09-24T06:02:17.432Z,88.69
2017-09-24T06:03:17.428Z,88.59
2017-09-24T06:04:17.366Z,88.59
2017-09-24T06:05:17.382Z,88.59
2017-09-24T06:06:17.325Z,88.31
2017-09-24T06:07:17.316Z,88.50
2017-09-24T06:08:17.334Z,88.31
2017-09-24T06:09:17.325Z,88.40
2017-09-24T06:10:17.263Z,88.50
2017-09-24T06:11:17.895Z,88.40
2017-09-24T06:12:17.279Z,88.50
2017-09-24T06:13:17.213Z,88.21
2017-09-24T06:14:17.182Z,88.50
2017-09-24T06:15:17.236Z,88.69
2017-09-24T06:16:17.193Z,88.21
2017-09-24T06:17:17.195Z,88.45
2017-09-24T06:18:17.116Z,88.26
2017-09-24T06:19:17.105Z,88.16
2017-09-24T06:20:17.102Z,88.16
2017-09-24T06:21:17.143Z,88.16
2017-09-24T06:22:17.999Z,88.07
2017-09-24T06:23:17.029Z,88.26
2017-09-24T06:24:17.002Z,88.26
2017-09-24T06:25:16.989Z,88.35
2017-09-24T06:26:17.024Z,88.35
2017-09-24T06:27:16.995Z,88.16
2017-09-24T06:28:16.956Z,88.16
2017-09-24T06:29:16.921Z,88.54
2017-09-24T06:30:16.905Z,88.54
2017-09-24T06:31:16.879Z,88.07
2017-09-24T06:32:16.889Z,88.35
2017-09-24T06:33:16.877Z,88.26
2017-09-24T06:34:16.863Z,88.45
2017-09-24T06:35:16.812Z,88.35
2017-09-24T06:36:16.781Z,88.35
2017-09-24T06:37:16.769Z,87.97
2017-09-24T06:38:16.794Z,88.26
2017-09-24T06:39:16.730Z,88.35
2017-09-24T06:40:16.725Z,88.45
2017-09-24T06:41:16.737Z,88.16
2017-09-24T06:42:17.371Z,87.78
2017-09-24T06:43:16.659Z,87.78
2017-09-24T06:44:16.654Z,88.26
2017-09-24T06:45:16.632Z,88.45
2017-09-24T06:46:16.723Z,88.45
2017-09-24T06:47:16.607Z,88.54
2017-09-24T06:48:16.580Z,87.82
2017-09-24T06:49:16.612Z,88.07
2017-09-24T06:50:16.590Z,87.82
2017-09-24T06:51:16.536Z,88.11
2017-09-24T06:52:16.594Z,88.20
2017-09-24T06:53:16.564Z,88.20
2017-09-24T06:54:16.480Z,88.30
2017-09-24T06:55:18.175Z,88.01
2017-09-24T06:56:16.433Z,88.11
2017-09-24T06:57:16.417Z,87.92
2017-09-24T06:58:16.467Z,87.54
2017-09-24T06:59:16.378Z,88.01
2017-09-24T07:00:16.399Z,87.82
2017-09-24T07:01:16.380Z,87.92
2017-09-24T07:02:17.531Z,87.35
2017-09-24T07:03:16.306Z,87.35
2017-09-24T07:04:16.292Z,87.54
2017-09-24T07:05:16.274Z,87.54
2017-09-24T07:06:16.282Z,87.63
2017-09-24T07:07:16.236Z,87.54
2017-09-24T07:08:16.227Z,87.44
2017-09-24T07:09:16.209Z,87.35
2017-09-24T07:10:16.215Z,87.35
2017-09-24T07:11:16.173Z,87.35
2017-09-24T07:12:16.158Z,87.39
2017-09-24T07:13:16.149Z,87.35
2017-09-24T07:14:16.157Z,87.25
2017-09-24T07:15:16.093Z,87.35
2017-09-24T07:16:16.101Z,87.25
2017-09-24T07:17:16.115Z,87.44
2017-09-24T07:18:16.066Z,87.29
2017-09-24T07:19:16.090Z,87.29
2017-09-24T07:20:16.050Z,87.20
2017-09-24T07:21:16.012Z,87.58
2017-09-24T07:22:15.995Z,86.91
2017-09-24T07:23:15.988Z,86.82
2017-09-24T07:24:15.968Z,86.82
2017-09-24T07:25:15.927Z,86.82
2017-09-24T07:26:15.964Z,86.67
2017-09-24T07:27:15.915Z,86.76
2017-09-24T07:28:15.892Z,86.86
2017-09-24T07:29:15.931Z,86.67
2017-09-24T07:30:15.850Z,86.57
2017-09-24T07:31:15.895Z,86.57
2017-09-24T07:32:15.814Z,86.67
2017-09-24T07:33:15.797Z,86.57
2017-09-24T07:34:15.770Z,86.47
2017-09-24T07:35:15.819Z,85.71
2017-09-24T07:36:15.758Z,85.75
2017-09-24T07:37:15.775Z,85.90
2017-09-24T07:38:15.727Z,85.85
2017-09-24T07:39:15.686Z,85.57
2017-09-24T07:40:15.675Z,85.47
2017-09-24T07:41:15.672Z,84.99
2017-09-24T07:42:15.634Z,85.09
2017-09-24T07:43:15.627Z,85.18
2017-09-24T07:44:15.608Z,85.09
2017-09-24T07:45:15.585Z,84.99
2017-09-24T07:46:15.569Z,84.42
2017-09-24T07:47:15.559Z,85.09
2017-09-24T07:48:15.562Z,85.22
2017-09-24T07:49:15.608Z,85.51
2017-09-24T07:50:15.514Z,84.65
2017-09-24T07:51:16.342Z,84.36
2017-09-24T07:52:15.478Z,84.65
2017-09-24T07:53:15.457Z,84.88
2017-09-24T07:54:15.437Z,83.73
2017-09-24T07:55:15.417Z,84.02
2017-09-24T07:56:15.407Z,83.73
2017-09-24T07:57:15.420Z,83.16
2017-09-24T07:58:15.369Z,83.45
2017-09-24T07:59:15.360Z,83.16
2017-09-24T08:00:15.340Z,83.83
2017-09-24T08:01:15.317Z,83.26
2017-09-24T08:02:15.307Z,83.16
2017-09-24T08:03:15.518Z,83.39
2017-09-24T08:04:15.297Z,83.54
2017-09-24T08:05:24.891Z,83.49
2017-09-24T08:07:09.335Z,83.01
2017-09-24T08:08:08.301Z,83.01
2017-09-24T08:09:08.337Z,82.63
2017-09-24T08:10:08.294Z,82.82
2017-09-24T08:11:08.279Z,83.05
2017-09-24T08:12:08.472Z,82.34
2017-09-24T08:13:08.612Z,82.29
2017-09-24T08:14:09.459Z,82.34
2017-09-24T08:15:08.240Z,82.09
2017-09-24T08:16:08.193Z,82.00
2017-09-24T08:17:08.179Z,82.29
2017-09-24T08:18:08.456Z,81.71
2017-09-24T08:19:08.126Z,81.90
2017-09-24T08:20:08.114Z,81.90
2017-09-24T08:21:08.116Z,81.81
2017-09-24T08:22:08.086Z,81.71
2017-09-24T08:23:08.095Z,81.43
2017-09-24T08:24:08.053Z,81.90
2017-09-24T08:25:08.061Z,81.33
2017-09-24T08:26:08.044Z,81.18
2017-09-24T08:27:08.027Z,80.79
2017-09-24T08:28:07.994Z,81.08
2017-09-24T08:29:07.970Z,80.64
2017-09-24T08:30:07.960Z,80.79
2017-09-24T08:31:07.971Z,80.55
2017-09-24T08:32:07.925Z,80.26
2017-09-24T08:33:07.911Z,79.97
2017-09-24T08:34:07.909Z,79.53
2017-09-24T08:35:07.972Z,79.63
2017-09-24T08:36:09.673Z,78.86
2017-09-24T08:37:07.939Z,79.05
2017-09-24T08:38:07.825Z,78.77
2017-09-24T08:39:07.839Z,78.77
2017-09-24T08:40:07.804Z,78.03
2017-09-24T08:41:07.796Z,78.03
2017-09-24T08:42:07.776Z,78.23
2017-09-24T08:43:07.759Z,78.03
2017-09-24T08:44:07.751Z,78.32
2017-09-24T08:45:07.726Z,78.32
2017-09-24T08:46:07.738Z,78.13
2017-09-24T08:47:07.710Z,77.75
2017-09-24T08:48:07.692Z,77.46
2017-09-24T08:49:07.681Z,77.46
2017-09-24T08:50:07.676Z,77.50
2017-09-24T08:51:07.651Z,77.11
2017-09-24T08:52:07.661Z,77.31
2017-09-24T08:53:07.651Z,77.40
2017-09-24T08:54:07.628Z,77.11
2017-09-24T08:55:07.594Z,77.21
2017-09-24T08:56:07.581Z,77.31
2017-09-24T08:57:07.566Z,76.73
2017-09-24T08:58:07.580Z,77.46
2017-09-24T08:59:07.541Z,78.03
2017-09-24T09:00:07.531Z,78.03
2017-09-24T09:01:07.520Z,78.42
2017-09-24T09:02:07.497Z,77.65
2017-09-24T09:03:07.507Z,77.65
2017-09-24T09:04:07.680Z,77.46
2017-09-24T09:05:07.457Z,77.75
2017-09-24T09:06:07.443Z,77.01
2017-09-24T09:07:07.541Z,77.21
2017-09-24T09:08:07.439Z,77.40
2017-09-24T09:09:07.401Z,77.01
2017-09-24T09:10:07.390Z,77.11
2017-09-24T09:11:07.366Z,77.11
2017-09-24T09:12:07.361Z,76.92
2017-09-24T09:13:07.347Z,77.21
2017-09-24T09:14:07.340Z,77.01
2017-09-24T09:15:07.325Z,77.01
2017-09-24T09:16:07.736Z,76.73
2017-09-24T09:17:07.290Z,76.73
2017-09-24T09:18:07.288Z,76.64
2017-09-24T09:19:07.266Z,76.44
2017-09-24T09:20:07.253Z,76.64
2017-09-24T09:21:07.232Z,76.34
2017-09-24T09:22:07.220Z,76.54
2017-09-24T09:23:07.218Z,76.64
2017-09-24T09:24:07.194Z,76.15
2017-09-24T09:25:07.196Z,76.44
2017-09-24T09:26:07.615Z,76.06
2017-09-24T09:27:07.185Z,75.77
2017-09-24T09:28:07.145Z,75.87
2017-09-24T09:29:07.136Z,75.81
2017-09-24T09:30:07.152Z,76.00
2017-09-24T09:31:07.105Z,75.71
2017-09-24T09:32:07.092Z,75.32
2017-09-24T09:33:07.074Z,75.42
2017-09-24T09:34:07.077Z,75.07
2017-09-24T09:35:07.064Z,75.17
2017-09-24T09:36:07.042Z,73.83
2017-09-24T09:37:07.029Z,74.15
2017-09-24T09:38:07.021Z,73.77
2017-09-24T09:39:07.020Z,73.09
2017-09-24T09:40:06.976Z,73.32
2017-09-24T09:41:06.972Z,73.03
2017-09-24T09:42:06.971Z,72.26
2017-09-24T09:43:06.954Z,72.45
2017-09-24T09:44:06.933Z,72.45
2017-09-24T09:45:06.939Z,72.17
2017-09-24T09:46:06.907Z,72.07
2017-09-24T09:47:06.898Z,72.36
2017-09-24T09:48:06.880Z,72.07
2017-09-24T09:49:06.887Z,72.17
2017-09-24T09:50:06.860Z,72.17
2017-09-24T09:51:06.851Z,71.97
2017-09-24T09:52:06.841Z,72.20
2017-09-24T09:53:06.861Z,71.78
2017-09-24T09:54:06.829Z,72.17
2017-09-24T09:55:06.793Z,71.88
2017-09-24T09:56:06.778Z,72.74
2017-09-24T09:57:06.815Z,73.03
2017-09-24T09:58:06.781Z,72.55
2017-09-24T09:59:06.749Z,72.36
2017-09-24T10:00:06.750Z,73.19
2017-09-24T10:01:06.735Z,72.71
2017-09-24T10:02:06.712Z,73.00
2017-09-24T10:03:06.697Z,73.28
2017-09-24T10:04:06.708Z,73.19
2017-09-24T10:05:06.687Z,73.77
2017-09-24T10:06:06.679Z,73.92
2017-09-24T10:07:06.680Z,74.21
2017-09-24T10:08:06.654Z,74.50
2017-09-24T10:09:06.671Z,74.50
2017-09-24T10:10:06.718Z,74.30
2017-09-24T10:11:06.930Z,74.37
2017-09-24T10:12:06.591Z,74.55
2017-09-24T10:13:06.610Z,74.65
2017-09-24T10:14:06.753Z,74.37
2017-09-24T10:15:06.559Z,74.55
2017-09-24T10:16:06.540Z,74.46
2017-09-24T10:17:06.531Z,74.37
2017-09-24T10:18:06.537Z,73.79
2017-09-24T10:19:06.498Z,74.08
2017-09-24T10:20:06.478Z,73.69
2017-09-24T10:21:06.489Z,74.08
2017-09-24T10:22:06.460Z,74.46
2017-09-24T10:23:06.455Z,75.13
2017-09-24T10:24:06.439Z,75.13
2017-09-24T10:25:06.430Z,74.55
2017-09-24T10:26:06.412Z,74.55
2017-09-24T10:27:06.423Z,73.98
2017-09-24T10:28:06.431Z,73.98
2017-09-24T10:29:06.381Z,74.08
2017-09-24T10:30:06.381Z,73.60
2017-09-24T10:31:06.385Z,73.41
2017-09-24T10:32:06.361Z,73.60
2017-09-24T10:33:06.351Z,73.50
2017-09-24T10:34:07.243Z,73.50
2017-09-24T10:35:06.295Z,73.31
2017-09-24T10:36:06.280Z,73.50
2017-09-24T10:37:06.309Z,73.21
2017-09-24T10:38:06.261Z,73.02
2017-09-24T10:39:06.282Z,72.92
2017-09-24T10:40:06.226Z,73.31
2017-09-24T10:41:06.207Z,73.69
2017-09-24T10:42:06.285Z,73.69
2017-09-24T10:43:06.211Z,73.50
2017-09-24T10:44:06.214Z,73.31
2017-09-24T10:45:06.266Z,73.69
2017-09-24T10:46:06.214Z,73.50
2017-09-24T10:47:06.159Z,73.50
2017-09-24T10:48:06.213Z,73.69
2017-09-24T10:49:06.158Z,73.11
2017-09-24T10:50:06.133Z,73.50
2017-09-24T10:51:06.108Z,73.41
2017-09-24T10:52:06.217Z,73.27
2017-09-24T10:53:06.195Z,73.11
2017-09-24T10:54:06.116Z,73.41
2017-09-24T10:55:06.124Z,73.37
2017-09-24T10:56:06.064Z,73.56
2017-09-24T10:57:07.961Z,73.37
2017-09-24T10:58:06.118Z,73.37
2017-09-24T10:59:06.122Z,72.89
2017-09-24T11:00:06.047Z,74.04
2017-09-24T11:01:05.988Z,73.75
2017-09-24T11:02:05.958Z,73.75
2017-09-24T11:03:05.920Z,73.94
2017-09-24T11:04:05.948Z,74.04
2017-09-24T11:05:05.916Z,73.85
2017-09-24T11:06:05.886Z,74.04
2017-09-24T11:07:05.877Z,73.85
2017-09-24T11:08:05.869Z,74.01
2017-09-24T11:09:05.864Z,73.91
2017-09-24T11:10:06.300Z,74.01
2017-09-24T11:11:05.926Z,74.29
2017-09-24T11:12:05.841Z,73.72
2017-09-24T11:13:05.793Z,74.04
2017-09-24T11:14:05.824Z,73.37
2017-09-24T11:15:05.783Z,72.83
2017-09-24T11:16:05.778Z,72.73
2017-09-24T11:17:05.759Z,71.61
2017-09-24T11:18:05.762Z,70.50
2017-09-24T11:19:05.723Z,70.21
2017-09-24T11:20:05.765Z,70.05
2017-09-24T11:21:05.811Z,69.57
2017-09-24T11:22:05.690Z,68.80
2017-09-24T11:23:05.711Z,68.64
2017-09-24T11:24:05.774Z,68.64
2017-09-24T11:25:05.678Z,68.35
2017-09-24T11:26:05.653Z,68.29
2017-09-24T11:27:05.619Z,68.00
2017-09-24T11:28:05.635Z,67.33
2017-09-24T11:29:05.637Z,67.55
2017-09-24T11:30:05.678Z,66.97
2017-09-24T11:31:05.587Z,66.78
2017-09-24T11:32:05.561Z,66.72
2017-09-24T11:33:05.568Z,66.52
2017-09-24T11:34:06.048Z,65.85
2017-09-24T11:35:05.519Z,66.24
2017-09-24T11:36:05.576Z,65.75
2017-09-24T11:37:05.513Z,66.14
2017-09-24T11:38:05.517Z,65.95
2017-09-24T11:39:07.265Z,66.04
2017-09-24T11:40:05.534Z,66.62
2017-09-24T11:41:05.522Z,66.88
2017-09-24T11:42:05.516Z,67.46
2017-09-24T11:43:05.494Z,67.16
2017-09-24T11:44:05.496Z,67.46
2017-09-24T11:45:05.410Z,67.71
2017-09-24T11:46:05.549Z,67.52
2017-09-24T11:47:05.661Z,67.65
2017-09-24T11:48:05.980Z,67.46
2017-09-24T11:49:05.579Z,67.26
2017-09-24T11:50:05.511Z,66.88
2017-09-24T11:51:05.462Z,67.26
2017-09-24T11:52:05.354Z,66.78
2017-09-24T11:53:05.688Z,66.30
2017-09-24T11:54:05.501Z,65.95
2017-09-24T11:55:05.345Z,65.85
2017-09-24T11:56:05.362Z,65.37
2017-09-24T11:57:05.346Z,65.01
2017-09-24T11:58:05.324Z,64.53
2017-09-24T11:59:05.350Z,64.15
2017-09-24T12:00:05.250Z,63.50
2017-09-24T12:01:05.268Z,63.21
2017-09-24T12:02:05.208Z,63.70
2017-09-24T12:03:05.202Z,63.31
2017-09-24T12:04:05.221Z,62.57
2017-09-24T12:05:05.197Z,62.44
2017-09-24T12:06:05.193Z,62.28
2017-09-24T12:07:05.223Z,62.28
2017-09-24T12:08:05.163Z,62.18
2017-09-24T12:09:05.154Z,62.44
2017-09-24T12:10:05.153Z,62.44
2017-09-24T12:11:05.111Z,62.34
2017-09-24T12:12:05.118Z,62.63
2017-09-24T12:13:05.088Z,63.40
2017-09-24T12:14:05.098Z,63.70
2017-09-24T12:15:05.071Z,63.28
2017-09-24T12:16:05.066Z,63.37
2017-09-24T12:17:05.072Z,63.57
2017-09-24T12:18:05.061Z,63.95
2017-09-24T12:19:05.038Z,63.92
2017-09-24T12:20:05.032Z,64.59
2017-09-24T12:21:05.036Z,64.11
2017-09-24T12:22:05.009Z,64.79
2017-09-24T12:23:05.036Z,64.37
2017-09-24T12:24:05.071Z,64.76
2017-09-24T12:25:05.101Z,65.24
2017-09-24T12:26:05.128Z,64.76
2017-09-24T12:27:04.952Z,64.37
2017-09-24T12:28:04.935Z,64.95
2017-09-24T12:29:04.969Z,63.98
2017-09-24T12:30:04.923Z,64.28
2017-09-24T12:31:05.674Z,63.79
2017-09-24T12:32:05.037Z,63.82
2017-09-24T12:33:04.885Z,63.31
2017-09-24T12:34:04.872Z,63.54
2017-09-24T12:35:04.905Z,62.86
2017-09-24T12:36:04.862Z,62.76
2017-09-24T12:37:04.864Z,62.96
2017-09-24T12:38:04.861Z,63.41
2017-09-24T12:39:04.824Z,63.70
2017-09-24T12:40:04.881Z,63.95
2017-09-24T12:41:04.791Z,64.53
2017-09-24T12:42:04.798Z,64.92
2017-09-24T12:43:04.802Z,65.17
2017-09-24T12:44:04.801Z,64.98
2017-09-24T12:45:04.794Z,65.46
2017-09-24T12:46:04.855Z,66.10
2017-09-24T12:47:04.726Z,65.81
2017-09-24T12:48:04.725Z,66.01
2017-09-24T12:49:04.718Z,66.65
2017-09-24T12:50:04.822Z,66.65
2017-09-24T12:51:04.677Z,66.74
2017-09-24T12:52:04.752Z,67.29
2017-09-24T12:53:04.773Z,67.68